Terminal Aerodrome Forecast
Issued by NWS

Home | Current Version | Previous Version | Text Only | Print | Product List | Glossary On
Versions: 1 2 3 4 5 6 7 8 9 10 11 12 13 14 15 16 17 18 19 20 21 22 23 24 25 26 27
000
FTAK31 PANC 192106 AAA
TAFATK
TAF AMD
PATK 192106Z 1921/2018 VRB05KT P6SM -RA SCT004 OVC050
      TEMPO 1921/1924 BKN004
     FM200000 21004KT P6SM -SHRA SCT025 BKN060
      TEMPO 2000/2003 BKN025
     FM201400 19006KT P6SM BKN025 OVC050=

USA.gov is the U.S. government's official web portal to all federal, state and local government web resources and services.